sensor_id;sensor_type;location;lat;lon;timestamp;temperature;humidity
484;DHT22;228;48.922;12.198;2022-11-15T00:00:14;9.40;73.70
484;DHT22;228;48.922;12.198;2022-11-15T00:02:59;9.40;73.50
484;DHT22;228;48.922;12.198;2022-11-15T00:05:45;9.30;73.30
484;DHT22;228;48.922;12.198;2022-11-15T00:08:31;9.20;73.30
484;DHT22;228;48.922;12.198;2022-11-15T00:11:16;9.20;72.80
484;DHT22;228;48.922;12.198;2022-11-15T00:14:01;9.10;72.10
484;DHT22;228;48.922;12.198;2022-11-15T00:16:48;9.00;72.30
484;DHT22;228;48.922;12.198;2022-11-15T00:19:33;9.00;72.60
484;DHT22;228;48.922;12.198;2022-11-15T00:22:17;8.90;72.80
484;DHT22;228;48.922;12.198;2022-11-15T00:25:02;8.90;73.10
484;DHT22;228;48.922;12.198;2022-11-15T00:27:47;8.80;73.40
484;DHT22;228;48.922;12.198;2022-11-15T00:30:32;8.80;73.60
484;DHT22;228;48.922;12.198;2022-11-15T00:33:17;8.80;74.00
484;DHT22;228;48.922;12.198;2022-11-15T00:36:07;8.80;74.20
484;DHT22;228;48.922;12.198;2022-11-15T00:38:56;8.80;75.00
484;DHT22;228;48.922;12.198;2022-11-15T00:41:41;8.90;74.80
484;DHT22;228;48.922;12.198;2022-11-15T00:44:25;8.90;74.60
484;DHT22;228;48.922;12.198;2022-11-15T00:47:10;9.00;74.50
484;DHT22;228;48.922;12.198;2022-11-15T00:49:54;8.90;74.50
484;DHT22;228;48.922;12.198;2022-11-15T00:52:39;9.00;74.20
484;DHT22;228;48.922;12.198;2022-11-15T00:55:24;8.90;74.60
484;DHT22;228;48.922;12.198;2022-11-15T00:58:09;8.90;74.60
484;DHT22;228;48.922;12.198;2022-11-15T01:00:53;9.00;74.40
484;DHT22;228;48.922;12.198;2022-11-15T01:03:39;8.90;74.30
484;DHT22;228;48.922;12.198;2022-11-15T01:06:24;8.80;75.10
484;DHT22;228;48.922;12.198;2022-11-15T01:09:09;8.90;74.60
484;DHT22;228;48.922;12.198;2022-11-15T01:11:54;8.90;74.10
484;DHT22;228;48.922;12.198;2022-11-15T01:14:38;8.80;74.30
484;DHT22;228;48.922;12.198;2022-11-15T01:17:23;8.80;74.30
484;DHT22;228;48.922;12.198;2022-11-15T01:20:11;8.80;74.20
484;DHT22;228;48.922;12.198;2022-11-15T01:22:55;8.80;73.80
484;DHT22;228;48.922;12.198;2022-11-15T01:25:40;8.70;73.70
484;DHT22;228;48.922;12.198;2022-11-15T01:28:25;8.70;73.80
484;DHT22;228;48.922;12.198;2022-11-15T01:31:15;8.70;73.60
484;DHT22;228;48.922;12.198;2022-11-15T01:34:04;8.70;73.70
484;DHT22;228;48.922;12.198;2022-11-15T01:36:48;8.70;73.60
484;DHT22;228;48.922;12.198;2022-11-15T01:39:33;8.60;73.20
484;DHT22;228;48.922;12.198;2022-11-15T01:42:18;8.60;73.10
484;DHT22;228;48.922;12.198;2022-11-15T01:45:03;8.60;73.50
484;DHT22;228;48.922;12.198;2022-11-15T01:47:53;8.60;73.70
484;DHT22;228;48.922;12.198;2022-11-15T01:50:38;8.60;73.60
484;DHT22;228;48.922;12.198;2022-11-15T01:53:24;8.60;73.10
484;DHT22;228;48.922;12.198;2022-11-15T01:56:13;8.50;73.00
484;DHT22;228;48.922;12.198;2022-11-15T01:59:03;8.50;73.40
484;DHT22;228;48.922;12.198;2022-11-15T02:01:49;8.50;73.70
484;DHT22;228;48.922;12.198;2022-11-15T02:04:40;8.50;73.70
484;DHT22;228;48.922;12.198;2022-11-15T02:07:26;8.50;73.40
484;DHT22;228;48.922;12.198;2022-11-15T02:10:18;8.50;73.50
484;DHT22;228;48.922;12.198;2022-11-15T02:13:04;8.40;73.60
484;DHT22;228;48.922;12.198;2022-11-15T02:26:00;8.40;73.50
484;DHT22;228;48.922;12.198;2022-11-15T02:29:10;8.30;73.70
484;DHT22;228;48.922;12.198;2022-11-15T02:32:14;8.30;74.20
484;DHT22;228;48.922;12.198;2022-11-15T02:38:29;8.40;74.50
484;DHT22;228;48.922;12.198;2022-11-15T02:41:34;8.40;74.50
484;DHT22;228;48.922;12.198;2022-11-15T02:44:44;8.30;74.20
484;DHT22;228;48.922;12.198;2022-11-15T02:47:32;8.30;74.00
484;DHT22;228;48.922;12.198;2022-11-15T02:50:21;8.30;74.20
484;DHT22;228;48.922;12.198;2022-11-15T02:53:09;8.30;74.10
484;DHT22;228;48.922;12.198;2022-11-15T02:55:55;8.30;74.00
484;DHT22;228;48.922;12.198;2022-11-15T02:59:05;8.30;74.20
484;DHT22;228;48.922;12.198;2022-11-15T03:08:31;8.30;73.30
484;DHT22;228;48.922;12.198;2022-11-15T03:11:21;8.20;74.10
484;DHT22;228;48.922;12.198;2022-11-15T03:20:13;7.90;74.30
484;DHT22;228;48.922;12.198;2022-11-15T03:23:03;7.80;75.40
484;DHT22;228;48.922;12.198;2022-11-15T03:25:51;8.00;74.60
484;DHT22;228;48.922;12.198;2022-11-15T03:28:40;8.10;74.10
484;DHT22;228;48.922;12.198;2022-11-15T03:31:29;8.10;74.00
484;DHT22;228;48.922;12.198;2022-11-15T03:37:41;8.00;74.40
484;DHT22;228;48.922;12.198;2022-11-15T03:40:42;8.10;74.50
484;DHT22;228;48.922;12.198;2022-11-15T03:43:36;8.00;74.80
484;DHT22;228;48.922;12.198;2022-11-15T03:46:36;7.80;74.70
484;DHT22;228;48.922;12.198;2022-11-15T03:49:35;7.90;74.10
484;DHT22;228;48.922;12.198;2022-11-15T03:52:21;7.90;73.60
484;DHT22;228;48.922;12.198;2022-11-15T03:55:10;7.90;73.30
484;DHT22;228;48.922;12.198;2022-11-15T03:57:59;7.90;73.40
484;DHT22;228;48.922;12.198;2022-11-15T04:00:44;7.90;72.70
484;DHT22;228;48.922;12.198;2022-11-15T04:03:29;7.90;72.40
484;DHT22;228;48.922;12.198;2022-11-15T04:06:13;7.80;71.90
484;DHT22;228;48.922;12.198;2022-11-15T04:08:58;7.80;71.70
484;DHT22;228;48.922;12.198;2022-11-15T04:11:43;7.70;71.70
484;DHT22;228;48.922;12.198;2022-11-15T04:14:27;7.70;71.60
484;DHT22;228;48.922;12.198;2022-11-15T04:17:12;7.60;71.50
484;DHT22;228;48.922;12.198;2022-11-15T04:19:57;7.60;71.30
484;DHT22;228;48.922;12.198;2022-11-15T04:23:01;7.60;71.30
484;DHT22;228;48.922;12.198;2022-11-15T04:26:19;7.60;71.10
484;DHT22;228;48.922;12.198;2022-11-15T04:29:05;7.60;71.10
484;DHT22;228;48.922;12.198;2022-11-15T04:32:08;7.60;71.10
484;DHT22;228;48.922;12.198;2022-11-15T04:34:52;7.50;72.10
484;DHT22;228;48.922;12.198;2022-11-15T04:37:37;7.50;72.40
484;DHT22;228;48.922;12.198;2022-11-15T04:40:21;7.50;72.30
484;DHT22;228;48.922;12.198;2022-11-15T04:43:06;7.60;71.50
484;DHT22;228;48.922;12.198;2022-11-15T04:45:51;7.30;71.30
484;DHT22;228;48.922;12.198;2022-11-15T04:48:35;7.30;71.60
484;DHT22;228;48.922;12.198;2022-11-15T04:51:20;7.40;71.60
484;DHT22;228;48.922;12.198;2022-11-15T04:54:05;7.40;71.40
484;DHT22;228;48.922;12.198;2022-11-15T04:56:50;7.40;71.70
484;DHT22;228;48.922;12.198;2022-11-15T04:59:35;7.30;71.50
484;DHT22;228;48.922;12.198;2022-11-15T05:02:19;7.20;71.80
484;DHT22;228;48.922;12.198;2022-11-15T05:05:04;7.30;71.40
484;DHT22;228;48.922;12.198;2022-11-15T05:07:49;7.30;71.30
484;DHT22;228;48.922;12.198;2022-11-15T05:10:34;7.30;70.80
484;DHT22;228;48.922;12.198;2022-11-15T05:13:19;7.20;70.50
484;DHT22;228;48.922;12.198;2022-11-15T05:16:03;7.10;70.70
484;DHT22;228;48.922;12.198;2022-11-15T05:18:52;7.10;71.10
484;DHT22;228;48.922;12.198;2022-11-15T05:21:38;7.00;71.50
484;DHT22;228;48.922;12.198;2022-11-15T05:24:22;7.00;71.00
484;DHT22;228;48.922;12.198;2022-11-15T05:27:07;6.90;71.50
484;DHT22;228;48.922;12.198;2022-11-15T05:29:52;6.80;71.30
484;DHT22;228;48.922;12.198;2022-11-15T05:32:37;6.70;71.70
484;DHT22;228;48.922;12.198;2022-11-15T05:35:37;6.70;71.80
484;DHT22;228;48.922;12.198;2022-11-15T05:38:23;6.90;71.90
484;DHT22;228;48.922;12.198;2022-11-15T05:41:08;6.80;72.20
484;DHT22;228;48.922;12.198;2022-11-15T05:43:54;6.80;72.50
484;DHT22;228;48.922;12.198;2022-11-15T05:46:39;7.00;72.00
484;DHT22;228;48.922;12.198;2022-11-15T05:49:29;7.10;71.70
484;DHT22;228;48.922;12.198;2022-11-15T05:52:19;7.10;72.00
484;DHT22;228;48.922;12.198;2022-11-15T05:55:05;7.30;71.90
484;DHT22;228;48.922;12.198;2022-11-15T05:57:52;7.30;71.40
484;DHT22;228;48.922;12.198;2022-11-15T06:00:37;7.40;72.00
484;DHT22;228;48.922;12.198;2022-11-15T06:03:21;7.50;71.70
484;DHT22;228;48.922;12.198;2022-11-15T06:06:06;7.60;71.60
484;DHT22;228;48.922;12.198;2022-11-15T06:08:51;7.80;71.20
484;DHT22;228;48.922;12.198;2022-11-15T06:11:36;7.70;71.00
484;DHT22;228;48.922;12.198;2022-11-15T06:14:20;7.70;70.90
484;DHT22;228;48.922;12.198;2022-11-15T06:17:05;7.80;71.10
484;DHT22;228;48.922;12.198;2022-11-15T06:20:15;7.60;71.70
484;DHT22;228;48.922;12.198;2022-11-15T06:23:19;7.70;71.90
484;DHT22;228;48.922;12.198;2022-11-15T06:26:04;7.90;71.70
484;DHT22;228;48.922;12.198;2022-11-15T06:28:49;7.90;71.10
484;DHT22;228;48.922;12.198;2022-11-15T06:31:34;7.60;71.50
484;DHT22;228;48.922;12.198;2022-11-15T06:34:19;7.60;72.00
484;DHT22;228;48.922;12.198;2022-11-15T06:37:04;7.50;71.90
484;DHT22;228;48.922;12.198;2022-11-15T06:39:48;7.70;71.90
484;DHT22;228;48.922;12.198;2022-11-15T06:42:33;7.60;72.10
484;DHT22;228;48.922;12.198;2022-11-15T06:45:17;7.70;72.30
484;DHT22;228;48.922;12.198;2022-11-15T06:48:02;7.80;71.50
484;DHT22;228;48.922;12.198;2022-11-15T06:50:54;7.90;71.00
484;DHT22;228;48.922;12.198;2022-11-15T06:53:40;7.70;71.80
484;DHT22;228;48.922;12.198;2022-11-15T06:56:25;7.80;71.40
484;DHT22;228;48.922;12.198;2022-11-15T06:59:09;7.70;71.20
484;DHT22;228;48.922;12.198;2022-11-15T07:02:14;7.50;71.10
484;DHT22;228;48.922;12.198;2022-11-15T07:05:02;7.50;71.00
484;DHT22;228;48.922;12.198;2022-11-15T07:07:52;7.80;71.10
484;DHT22;228;48.922;12.198;2022-11-15T07:10:37;7.90;70.60
484;DHT22;228;48.922;12.198;2022-11-15T07:13:25;8.10;70.30
484;DHT22;228;48.922;12.198;2022-11-15T07:16:11;8.20;69.80
484;DHT22;228;48.922;12.198;2022-11-15T07:18:56;8.20;69.40
484;DHT22;228;48.922;12.198;2022-11-15T07:21:41;8.10;69.50
484;DHT22;228;48.922;12.198;2022-11-15T07:24:25;8.10;69.80
484;DHT22;228;48.922;12.198;2022-11-15T07:27:10;8.30;70.10
484;DHT22;228;48.922;12.198;2022-11-15T07:29:55;8.40;70.10
484;DHT22;228;48.922;12.198;2022-11-15T07:32:40;8.50;70.00
484;DHT22;228;48.922;12.198;2022-11-15T07:35:25;8.50;70.00
484;DHT22;228;48.922;12.198;2022-11-15T07:38:11;8.50;70.00
484;DHT22;228;48.922;12.198;2022-11-15T07:40:57;8.30;70.40
484;DHT22;228;48.922;12.198;2022-11-15T07:43:43;8.40;70.70
484;DHT22;228;48.922;12.198;2022-11-15T07:46:28;8.60;70.20
484;DHT22;228;48.922;12.198;2022-11-15T07:49:13;8.10;70.10
484;DHT22;228;48.922;12.198;2022-11-15T07:51:57;8.10;70.20
484;DHT22;228;48.922;12.198;2022-11-15T07:54:42;7.90;70.20
484;DHT22;228;48.922;12.198;2022-11-15T07:57:27;8.10;71.10
484;DHT22;228;48.922;12.198;2022-11-15T08:00:12;8.40;71.00
484;DHT22;228;48.922;12.198;2022-11-15T08:03:12;8.60;70.50
484;DHT22;228;48.922;12.198;2022-11-15T08:05:58;8.90;70.00
484;DHT22;228;48.922;12.198;2022-11-15T08:08:43;9.10;69.80
484;DHT22;228;48.922;12.198;2022-11-15T08:11:28;9.30;69.30
484;DHT22;228;48.922;12.198;2022-11-15T08:14:13;9.60;69.20
484;DHT22;228;48.922;12.198;2022-11-15T08:17:04;9.80;68.90
484;DHT22;228;48.922;12.198;2022-11-15T08:19:49;9.90;69.70
484;DHT22;228;48.922;12.198;2022-11-15T08:22:33;9.80;70.00
484;DHT22;228;48.922;12.198;2022-11-15T08:25:18;9.60;72.00
484;DHT22;228;48.922;12.198;2022-11-15T08:28:06;9.40;73.90
484;DHT22;228;48.922;12.198;2022-11-15T08:30:51;9.50;74.50
484;DHT22;228;48.922;12.198;2022-11-15T08:33:35;9.70;74.70
484;DHT22;228;48.922;12.198;2022-11-15T08:36:20;9.40;74.20
484;DHT22;228;48.922;12.198;2022-11-15T08:39:05;9.00;76.00
484;DHT22;228;48.922;12.198;2022-11-15T08:41:49;9.10;76.70
484;DHT22;228;48.922;12.198;2022-11-15T08:44:34;9.30;76.90
484;DHT22;228;48.922;12.198;2022-11-15T08:47:19;9.60;75.70
484;DHT22;228;48.922;12.198;2022-11-15T08:50:04;9.90;75.40
484;DHT22;228;48.922;12.198;2022-11-15T08:52:49;10.30;73.20
484;DHT22;228;48.922;12.198;2022-11-15T08:55:37;10.30;71.90
484;DHT22;228;48.922;12.198;2022-11-15T08:58:22;10.50;72.30
484;DHT22;228;48.922;12.198;2022-11-15T09:01:20;10.70;69.70
484;DHT22;228;48.922;12.198;2022-11-15T09:04:05;11.00;69.70
484;DHT22;228;48.922;12.198;2022-11-15T09:06:49;11.40;68.80
484;DHT22;228;48.922;12.198;2022-11-15T09:09:34;11.30;68.90
484;DHT22;228;48.922;12.198;2022-11-15T09:12:19;11.50;68.10
484;DHT22;228;48.922;12.198;2022-11-15T09:15:05;12.00;67.00
484;DHT22;228;48.922;12.198;2022-11-15T09:17:50;12.20;65.80
484;DHT22;228;48.922;12.198;2022-11-15T09:20:35;12.10;65.60
484;DHT22;228;48.922;12.198;2022-11-15T09:23:19;12.00;66.00
484;DHT22;228;48.922;12.198;2022-11-15T09:26:05;12.00;66.30
484;DHT22;228;48.922;12.198;2022-11-15T09:28:50;11.80;67.00
484;DHT22;228;48.922;12.198;2022-11-15T09:31:35;11.60;67.90
484;DHT22;228;48.922;12.198;2022-11-15T09:34:19;11.70;69.70
484;DHT22;228;48.922;12.198;2022-11-15T09:37:05;11.80;68.90
484;DHT22;228;48.922;12.198;2022-11-15T09:39:49;11.80;68.50
484;DHT22;228;48.922;12.198;2022-11-15T09:43:08;11.50;69.10
484;DHT22;228;48.922;12.198;2022-11-15T09:49:31;11.70;70.50
484;DHT22;228;48.922;12.198;2022-11-15T09:52:14;11.90;68.70
484;DHT22;228;48.922;12.198;2022-11-15T09:54:48;12.20;69.30
484;DHT22;228;48.922;12.198;2022-11-15T09:57:24;12.50;68.50
484;DHT22;228;48.922;12.198;2022-11-15T10:05:47;12.30;68.60
484;DHT22;228;48.922;12.198;2022-11-15T10:11:09;12.40;69.20
484;DHT22;228;48.922;12.198;2022-11-15T10:13:40;12.20;68.90
484;DHT22;228;48.922;12.198;2022-11-15T10:27:55;13.30;66.60
484;DHT22;228;48.922;12.198;2022-11-15T10:30:22;13.70;65.80
484;DHT22;228;48.922;12.198;2022-11-15T10:32:49;13.50;64.10
484;DHT22;228;48.922;12.198;2022-11-15T10:35:28;13.00;67.30
484;DHT22;228;48.922;12.198;2022-11-15T10:38:06;13.00;67.30
484;DHT22;228;48.922;12.198;2022-11-15T10:40:34;13.20;67.70
484;DHT22;228;48.922;12.198;2022-11-15T10:45:35;13.50;67.30
484;DHT22;228;48.922;12.198;2022-11-15T10:50:42;13.70;67.40
484;DHT22;228;48.922;12.198;2022-11-15T10:55:42;13.20;68.20
484;DHT22;228;48.922;12.198;2022-11-15T10:58:42;13.20;68.60
484;DHT22;228;48.922;12.198;2022-11-15T11:01:12;13.30;69.30
484;DHT22;228;48.922;12.198;2022-11-15T11:04:03;13.10;69.90
484;DHT22;228;48.922;12.198;2022-11-15T11:06:46;13.20;70.20
484;DHT22;228;48.922;12.198;2022-11-15T11:09:38;13.30;70.40
484;DHT22;228;48.922;12.198;2022-11-15T11:12:10;13.50;69.00
484;DHT22;228;48.922;12.198;2022-11-15T11:14:38;14.00;70.00
484;DHT22;228;48.922;12.198;2022-11-15T11:25:37;18.90;54.10
484;DHT22;228;48.922;12.198;2022-11-15T11:34:05;23.00;42.40
484;DHT22;228;48.922;12.198;2022-11-15T11:37:02;23.00;41.50
484;DHT22;228;48.922;12.198;2022-11-15T11:47:11;27.00;34.70
484;DHT22;228;48.922;12.198;2022-11-15T11:53:09;27.10;32.90
484;DHT22;228;48.922;12.198;2022-11-15T11:55:47;27.20;34.30
484;DHT22;228;48.922;12.198;2022-11-15T11:58:36;27.80;32.30
484;DHT22;228;48.922;12.198;2022-11-15T12:09:34;28.80;29.80
484;DHT22;228;48.922;12.198;2022-11-15T12:17:32;29.70;29.50
484;DHT22;228;48.922;12.198;2022-11-15T12:19:59;30.80;28.40
484;DHT22;228;48.922;12.198;2022-11-15T12:23:14;31.50;27.80
484;DHT22;228;48.922;12.198;2022-11-15T12:25:49;32.40;26.50
484;DHT22;228;48.922;12.198;2022-11-15T12:31:24;31.70;27.40
484;DHT22;228;48.922;12.198;2022-11-15T12:33:57;30.90;27.50
484;DHT22;228;48.922;12.198;2022-11-15T12:41:31;28.00;30.10
484;DHT22;228;48.922;12.198;2022-11-15T12:44:02;28.60;29.80
484;DHT22;228;48.922;12.198;2022-11-15T12:59:55;30.40;28.10
484;DHT22;228;48.922;12.198;2022-11-15T13:02:39;30.20;27.60
484;DHT22;228;48.922;12.198;2022-11-15T13:17:46;31.70;26.60
484;DHT22;228;48.922;12.198;2022-11-15T13:23:02;30.30;28.70
484;DHT22;228;48.922;12.198;2022-11-15T13:31:22;31.40;27.30
484;DHT22;228;48.922;12.198;2022-11-15T13:33:51;31.70;27.10
484;DHT22;228;48.922;12.198;2022-11-15T13:36:22;31.50;27.30
484;DHT22;228;48.922;12.198;2022-11-15T13:41:34;30.30;28.30
484;DHT22;228;48.922;12.198;2022-11-15T13:44:03;30.20;28.50
484;DHT22;228;48.922;12.198;2022-11-15T13:46:31;29.30;29.30
484;DHT22;228;48.922;12.198;2022-11-15T13:49:01;29.20;29.50
484;DHT22;228;48.922;12.198;2022-11-15T13:51:39;28.40;30.60
484;DHT22;228;48.922;12.198;2022-11-15T13:56:41;26.40;33.90
484;DHT22;228;48.922;12.198;2022-11-15T13:59:33;25.40;35.10
484;DHT22;228;48.922;12.198;2022-11-15T14:02:03;24.80;36.70
484;DHT22;228;48.922;12.198;2022-11-15T14:04:45;23.80;38.80
484;DHT22;228;48.922;12.198;2022-11-15T14:07:22;23.30;39.80
484;DHT22;228;48.922;12.198;2022-11-15T14:09:50;22.00;41.90
484;DHT22;228;48.922;12.198;2022-11-15T14:12:38;20.60;45.20
484;DHT22;228;48.922;12.198;2022-11-15T14:15:34;20.10;46.60
484;DHT22;228;48.922;12.198;2022-11-15T14:18:02;19.90;47.80
484;DHT22;228;48.922;12.198;2022-11-15T14:20:34;19.70;48.30
484;DHT22;228;48.922;12.198;2022-11-15T14:23:17;19.70;48.50
484;DHT22;228;48.922;12.198;2022-11-15T14:25:58;19.70;48.60
484;DHT22;228;48.922;12.198;2022-11-15T14:30:53;19.00;49.90
484;DHT22;228;48.922;12.198;2022-11-15T14:33:36;18.60;50.80
484;DHT22;228;48.922;12.198;2022-11-15T14:36:14;18.20;52.50
484;DHT22;228;48.922;12.198;2022-11-15T14:38:42;18.10;52.50
484;DHT22;228;48.922;12.198;2022-11-15T14:41:19;17.90;52.70
484;DHT22;228;48.922;12.198;2022-11-15T14:43:51;17.70;53.00
484;DHT22;228;48.922;12.198;2022-11-15T14:46:18;17.30;54.30
484;DHT22;228;48.922;12.198;2022-11-15T14:48:44;17.10;54.80
484;DHT22;228;48.922;12.198;2022-11-15T14:51:16;17.10;54.60
484;DHT22;228;48.922;12.198;2022-11-15T14:53:43;16.90;55.20
484;DHT22;228;48.922;12.198;2022-11-15T14:56:11;16.80;55.50
484;DHT22;228;48.922;12.198;2022-11-15T14:58:37;16.60;56.00
484;DHT22;228;48.922;12.198;2022-11-15T15:01:19;16.60;56.30
484;DHT22;228;48.922;12.198;2022-11-15T15:03:47;16.60;56.50
484;DHT22;228;48.922;12.198;2022-11-15T15:06:13;16.60;56.50
484;DHT22;228;48.922;12.198;2022-11-15T15:08:40;16.50;56.50
484;DHT22;228;48.922;12.198;2022-11-15T15:11:38;16.30;57.40
484;DHT22;228;48.922;12.198;2022-11-15T15:14:04;16.20;57.20
484;DHT22;228;48.922;12.198;2022-11-15T15:16:30;16.00;57.90
484;DHT22;228;48.922;12.198;2022-11-15T15:18:57;15.80;58.30
484;DHT22;228;48.922;12.198;2022-11-15T15:21:25;15.70;58.70
484;DHT22;228;48.922;12.198;2022-11-15T15:23:53;15.50;59.00
484;DHT22;228;48.922;12.198;2022-11-15T15:26:21;15.30;59.70
484;DHT22;228;48.922;12.198;2022-11-15T15:28:48;15.10;60.20
484;DHT22;228;48.922;12.198;2022-11-15T15:31:14;14.90;61.20
484;DHT22;228;48.922;12.198;2022-11-15T15:33:40;14.70;61.10
484;DHT22;228;48.922;12.198;2022-11-15T15:36:15;14.60;61.00
484;DHT22;228;48.922;12.198;2022-11-15T15:38:43;14.40;62.40
484;DHT22;228;48.922;12.198;2022-11-15T15:41:12;14.10;63.30
484;DHT22;228;48.922;12.198;2022-11-15T15:43:39;13.90;64.50
484;DHT22;228;48.922;12.198;2022-11-15T15:46:14;13.70;65.60
484;DHT22;228;48.922;12.198;2022-11-15T15:48:41;13.60;66.50
484;DHT22;228;48.922;12.198;2022-11-15T15:51:07;13.40;66.80
484;DHT22;228;48.922;12.198;2022-11-15T15:53:34;13.30;66.90
484;DHT22;228;48.922;12.198;2022-11-15T15:56:00;13.20;67.00
484;DHT22;228;48.922;12.198;2022-11-15T15:58:26;13.00;68.00
484;DHT22;228;48.922;12.198;2022-11-15T16:00:52;13.00;67.90
484;DHT22;228;48.922;12.198;2022-11-15T16:03:19;12.90;68.00
484;DHT22;228;48.922;12.198;2022-11-15T16:05:45;12.70;68.20
484;DHT22;228;48.922;12.198;2022-11-15T16:08:22;12.60;68.30
484;DHT22;228;48.922;12.198;2022-11-15T16:10:50;12.50;68.20
484;DHT22;228;48.922;12.198;2022-11-15T16:13:16;12.40;68.40
484;DHT22;228;48.922;12.198;2022-11-15T16:15:43;12.30;68.30
484;DHT22;228;48.922;12.198;2022-11-15T16:18:15;12.20;68.20
484;DHT22;228;48.922;12.198;2022-11-15T16:20:47;12.00;68.20
484;DHT22;228;48.922;12.198;2022-11-15T16:23:22;11.90;68.30
484;DHT22;228;48.922;12.198;2022-11-15T16:25:54;11.80;68.90
484;DHT22;228;48.922;12.198;2022-11-15T16:28:29;11.70;68.10
484;DHT22;228;48.922;12.198;2022-11-15T16:31:09;11.60;68.20
484;DHT22;228;48.922;12.198;2022-11-15T16:33:36;11.50;68.40
484;DHT22;228;48.922;12.198;2022-11-15T16:36:04;11.50;69.80
484;DHT22;228;48.922;12.198;2022-11-15T16:38:31;11.60;71.10
484;DHT22;228;48.922;12.198;2022-11-15T16:40:58;11.70;72.20
484;DHT22;228;48.922;12.198;2022-11-15T16:43:24;11.70;72.20
484;DHT22;228;48.922;12.198;2022-11-15T16:45:50;11.70;71.20
484;DHT22;228;48.922;12.198;2022-11-15T16:48:23;11.70;70.70
484;DHT22;228;48.922;12.198;2022-11-15T16:50:53;11.70;71.20
484;DHT22;228;48.922;12.198;2022-11-15T16:53:21;11.60;71.70
484;DHT22;228;48.922;12.198;2022-11-15T16:55:48;11.70;72.20
484;DHT22;228;48.922;12.198;2022-11-15T16:58:14;11.80;71.30
484;DHT22;228;48.922;12.198;2022-11-15T17:00:40;11.70;70.00
484;DHT22;228;48.922;12.198;2022-11-15T17:03:06;11.50;69.50
484;DHT22;228;48.922;12.198;2022-11-15T17:05:32;11.40;69.80
484;DHT22;228;48.922;12.198;2022-11-15T17:07:58;11.30;70.20
484;DHT22;228;48.922;12.198;2022-11-15T17:10:25;11.40;70.60
484;DHT22;228;48.922;12.198;2022-11-15T17:12:53;11.40;71.70
484;DHT22;228;48.922;12.198;2022-11-15T17:15:20;11.40;73.50
484;DHT22;228;48.922;12.198;2022-11-15T17:17:53;11.30;74.10
484;DHT22;228;48.922;12.198;2022-11-15T17:20:21;11.30;74.80
484;DHT22;228;48.922;12.198;2022-11-15T17:22:49;11.30;75.50
484;DHT22;228;48.922;12.198;2022-11-15T17:25:15;11.50;75.20
484;DHT22;228;48.922;12.198;2022-11-15T17:27:42;11.50;74.70
484;DHT22;228;48.922;12.198;2022-11-15T17:30:11;11.60;74.60
484;DHT22;228;48.922;12.198;2022-11-15T17:32:37;11.70;74.30
484;DHT22;228;48.922;12.198;2022-11-15T17:35:04;11.80;73.90
484;DHT22;228;48.922;12.198;2022-11-15T17:37:34;11.80;73.10
484;DHT22;228;48.922;12.198;2022-11-15T17:40:00;11.80;72.90
484;DHT22;228;48.922;12.198;2022-11-15T17:42:26;11.90;71.50
484;DHT22;228;48.922;12.198;2022-11-15T17:44:52;11.80;69.90
484;DHT22;228;48.922;12.198;2022-11-15T17:47:18;11.60;69.20
484;DHT22;228;48.922;12.198;2022-11-15T17:49:44;11.50;69.10
484;DHT22;228;48.922;12.198;2022-11-15T17:52:10;11.40;69.20
484;DHT22;228;48.922;12.198;2022-11-15T17:54:36;11.20;69.10
484;DHT22;228;48.922;12.198;2022-11-15T17:57:03;11.10;69.80
484;DHT22;228;48.922;12.198;2022-11-15T17:59:29;11.10;70.60
484;DHT22;228;48.922;12.198;2022-11-15T18:01:55;11.00;70.30
484;DHT22;228;48.922;12.198;2022-11-15T18:04:21;10.90;70.70
484;DHT22;228;48.922;12.198;2022-11-15T18:06:53;10.80;70.90
484;DHT22;228;48.922;12.198;2022-11-15T18:09:20;10.80;70.80
484;DHT22;228;48.922;12.198;2022-11-15T18:11:46;10.90;70.10
484;DHT22;228;48.922;12.198;2022-11-15T18:14:17;10.90;69.40
484;DHT22;228;48.922;12.198;2022-11-15T18:16:43;10.90;69.20
484;DHT22;228;48.922;12.198;2022-11-15T18:19:10;10.90;68.60
484;DHT22;228;48.922;12.198;2022-11-15T18:21:39;10.70;69.00
484;DHT22;228;48.922;12.198;2022-11-15T18:24:33;10.60;69.70
484;DHT22;228;48.922;12.198;2022-11-15T18:27:01;10.40;71.00
484;DHT22;228;48.922;12.198;2022-11-15T18:29:28;10.60;70.50
484;DHT22;228;48.922;12.198;2022-11-15T18:31:54;10.70;70.10
484;DHT22;228;48.922;12.198;2022-11-15T18:34:25;10.70;70.00
484;DHT22;228;48.922;12.198;2022-11-15T18:36:56;10.80;69.70
484;DHT22;228;48.922;12.198;2022-11-15T18:39:22;10.80;69.80
484;DHT22;228;48.922;12.198;2022-11-15T18:41:48;10.80;69.60
484;DHT22;228;48.922;12.198;2022-11-15T18:44:15;10.80;69.70
484;DHT22;228;48.922;12.198;2022-11-15T18:46:42;10.70;69.20
484;DHT22;228;48.922;12.198;2022-11-15T18:49:11;10.60;69.50
484;DHT22;228;48.922;12.198;2022-11-15T18:51:38;10.70;69.60
484;DHT22;228;48.922;12.198;2022-11-15T18:54:08;10.70;70.10
484;DHT22;228;48.922;12.198;2022-11-15T18:56:35;10.70;70.00
484;DHT22;228;48.922;12.198;2022-11-15T18:59:02;10.70;69.40
484;DHT22;228;48.922;12.198;2022-11-15T19:01:38;10.70;69.60
484;DHT22;228;48.922;12.198;2022-11-15T19:04:09;10.70;71.50
484;DHT22;228;48.922;12.198;2022-11-15T19:06:40;10.60;72.70
484;DHT22;228;48.922;12.198;2022-11-15T19:09:07;10.80;73.50
484;DHT22;228;48.922;12.198;2022-11-15T19:11:37;10.80;72.90
484;DHT22;228;48.922;12.198;2022-11-15T19:14:06;10.90;72.10
484;DHT22;228;48.922;12.198;2022-11-15T19:16:38;11.00;71.30
484;DHT22;228;48.922;12.198;2022-11-15T19:19:10;11.00;70.50
484;DHT22;228;48.922;12.198;2022-11-15T19:21:38;10.90;69.70
484;DHT22;228;48.922;12.198;2022-11-15T19:24:04;10.80;70.10
484;DHT22;228;48.922;12.198;2022-11-15T19:26:31;10.80;70.20
484;DHT22;228;48.922;12.198;2022-11-15T19:28:59;10.90;70.10
484;DHT22;228;48.922;12.198;2022-11-15T19:31:27;10.90;69.70
484;DHT22;228;48.922;12.198;2022-11-15T19:33:56;10.90;70.20
484;DHT22;228;48.922;12.198;2022-11-15T19:36:29;10.90;70.10
484;DHT22;228;48.922;12.198;2022-11-15T19:38:58;10.80;70.10
484;DHT22;228;48.922;12.198;2022-11-15T19:41:26;10.80;69.70
484;DHT22;228;48.922;12.198;2022-11-15T19:43:52;10.90;69.30
484;DHT22;228;48.922;12.198;2022-11-15T19:46:20;10.80;69.10
484;DHT22;228;48.922;12.198;2022-11-15T19:48:49;10.80;69.60
484;DHT22;228;48.922;12.198;2022-11-15T19:51:21;10.80;69.40
484;DHT22;228;48.922;12.198;2022-11-15T19:53:53;10.90;69.80
484;DHT22;228;48.922;12.198;2022-11-15T19:56:20;10.80;70.10
484;DHT22;228;48.922;12.198;2022-11-15T19:58:54;10.80;70.40
484;DHT22;228;48.922;12.198;2022-11-15T20:01:23;10.80;70.70
484;DHT22;228;48.922;12.198;2022-11-15T20:03:52;10.90;70.70
484;DHT22;228;48.922;12.198;2022-11-15T20:06:22;10.90;70.30
484;DHT22;228;48.922;12.198;2022-11-15T20:08:50;11.00;69.80
484;DHT22;228;48.922;12.198;2022-11-15T20:11:17;10.90;69.70
484;DHT22;228;48.922;12.198;2022-11-15T20:13:44;10.90;69.70